sensor_id;sensor_type;location;lat;lon;timestamp;pressure;altitude;pressure_sealevel;temperature;humidity
49194;BME280;35029;50.804;12.866;2022-08-19T00:01:13;97078.72;;;19.83;99.30
49194;BME280;35029;50.804;12.866;2022-08-19T00:03:39;97081.69;;;19.87;99.68
49194;BME280;35029;50.804;12.866;2022-08-19T00:06:05;97075.25;;;19.88;99.24
49194;BME280;35029;50.804;12.866;2022-08-19T00:08:30;97080.88;;;19.86;99.26
49194;BME280;35029;50.804;12.866;2022-08-19T00:10:56;97066.38;;;19.77;99.05
49194;BME280;35029;50.804;12.866;2022-08-19T00:13:22;97083.31;;;19.88;98.85
49194;BME280;35029;50.804;12.866;2022-08-19T00:15:48;97080.63;;;19.88;99.70
49194;BME280;35029;50.804;12.866;2022-08-19T00:18:13;97084.66;;;19.85;99.45
49194;BME280;35029;50.804;12.866;2022-08-19T00:20:39;97076.56;;;19.90;99.36
49194;BME280;35029;50.804;12.866;2022-08-19T00:23:06;97080.34;;;19.89;99.46
49194;BME280;35029;50.804;12.866;2022-08-19T00:25:32;97081.41;;;19.88;99.18
49194;BME280;35029;50.804;12.866;2022-08-19T00:27:59;97077.38;;;19.91;98.66
49194;BME280;35029;50.804;12.866;2022-08-19T00:30:25;97080.63;;;19.88;98.78
49194;BME280;35029;50.804;12.866;2022-08-19T00:32:53;97075.50;;;19.86;99.34
49194;BME280;35029;50.804;12.866;2022-08-19T00:35:22;97059.09;;;19.77;100.00
49194;BME280;35029;50.804;12.866;2022-08-19T00:37:49;97081.16;;;19.85;98.96
49194;BME280;35029;50.804;12.866;2022-08-19T00:40:17;97065.84;;;19.80;99.86
49194;BME280;35029;50.804;12.866;2022-08-19T00:42:43;97066.13;;;19.84;100.00
49194;BME280;35029;50.804;12.866;2022-08-19T00:45:21;97069.88;;;19.88;99.82
49194;BME280;35029;50.804;12.866;2022-08-19T00:47:47;97055.31;;;19.89;99.32
49194;BME280;35029;50.804;12.866;2022-08-19T00:50:15;97064.22;;;19.89;99.15
49194;BME280;35029;50.804;12.866;2022-08-19T00:52:44;97049.41;;;19.92;99.54
49194;BME280;35029;50.804;12.866;2022-08-19T00:55:21;97049.66;;;19.90;99.65
49194;BME280;35029;50.804;12.866;2022-08-19T00:57:52;97044.03;;;19.87;99.78
49194;BME280;35029;50.804;12.866;2022-08-19T01:00:20;97041.34;;;19.82;99.77
49194;BME280;35029;50.804;12.866;2022-08-19T01:02:46;97052.13;;;19.82;99.56
49194;BME280;35029;50.804;12.866;2022-08-19T01:05:16;97057.50;;;19.82;100.00
49194;BME280;35029;50.804;12.866;2022-08-19T01:07:43;97057.19;;;19.78;100.00
49194;BME280;35029;50.804;12.866;2022-08-19T01:10:13;97059.34;;;19.86;100.00
49194;BME280;35029;50.804;12.866;2022-08-19T01:12:40;97058.53;;;19.75;100.00
49194;BME280;35029;50.804;12.866;2022-08-19T01:15:09;97055.88;;;19.86;100.00
49194;BME280;35029;50.804;12.866;2022-08-19T01:17:38;97060.47;;;19.80;100.00
49194;BME280;35029;50.804;12.866;2022-08-19T01:20:06;97058.56;;;19.81;100.00
49194;BME280;35029;50.804;12.866;2022-08-19T01:22:39;97047.00;;;19.75;100.00
49194;BME280;35029;50.804;12.866;2022-08-19T01:25:07;97060.72;;;19.79;100.00
49194;BME280;35029;50.804;12.866;2022-08-19T01:27:41;97042.44;;;19.81;100.00
49194;BME280;35029;50.804;12.866;2022-08-19T01:30:08;97045.13;;;19.86;100.00
49194;BME280;35029;50.804;12.866;2022-08-19T01:32:33;97039.22;;;19.84;100.00
49194;BME280;35029;50.804;12.866;2022-08-19T01:35:01;97034.09;;;19.77;100.00
49194;BME280;35029;50.804;12.866;2022-08-19T01:37:28;97047.81;;;19.81;100.00
49194;BME280;35029;50.804;12.866;2022-08-19T01:39:55;97037.88;;;19.81;100.00
49194;BME280;35029;50.804;12.866;2022-08-19T01:42:21;97048.06;;;19.79;100.00
49194;BME280;35029;50.804;12.866;2022-08-19T01:44:48;97029.28;;;19.69;100.00
49194;BME280;35029;50.804;12.866;2022-08-19T01:47:14;97045.13;;;19.81;100.00
49194;BME280;35029;50.804;12.866;2022-08-19T01:49:40;97030.06;;;19.69;100.00
49194;BME280;35029;50.804;12.866;2022-08-19T01:52:06;97035.97;;;19.76;100.00
49194;BME280;35029;50.804;12.866;2022-08-19T01:54:32;97020.66;;;19.72;100.00
49194;BME280;35029;50.804;12.866;2022-08-19T01:57:03;97024.16;;;19.62;100.00
49194;BME280;35029;50.804;12.866;2022-08-19T01:59:30;97023.63;;;19.65;100.00
49194;BME280;35029;50.804;12.866;2022-08-19T02:01:57;97034.91;;;19.67;100.00
49194;BME280;35029;50.804;12.866;2022-08-19T02:04:23;97030.59;;;19.71;100.00
49194;BME280;35029;50.804;12.866;2022-08-19T02:06:50;97037.34;;;19.69;100.00
49194;BME280;35029;50.804;12.866;2022-08-19T02:09:16;97032.75;;;19.69;100.00
49194;BME280;35029;50.804;12.866;2022-08-19T02:11:42;97048.34;;;19.72;100.00
49194;BME280;35029;50.804;12.866;2022-08-19T02:14:08;97056.94;;;19.74;100.00
49194;BME280;35029;50.804;12.866;2022-08-19T02:16:35;97054.25;;;19.69;100.00
49194;BME280;35029;50.804;12.866;2022-08-19T02:19:00;97061.78;;;19.72;100.00
49194;BME280;35029;50.804;12.866;2022-08-19T02:21:27;97069.59;;;19.84;100.00
49194;BME280;35029;50.804;12.866;2022-08-19T02:23:53;97059.63;;;19.85;100.00
49194;BME280;35029;50.804;12.866;2022-08-19T02:26:21;97059.63;;;19.85;100.00
49194;BME280;35029;50.804;12.866;2022-08-19T02:28:46;97054.81;;;19.87;100.00
49194;BME280;35029;50.804;12.866;2022-08-19T02:31:16;97051.06;;;19.83;100.00
49194;BME280;35029;50.804;12.866;2022-08-19T02:33:43;97047.00;;;19.75;100.00
49194;BME280;35029;50.804;12.866;2022-08-19T02:36:11;97032.75;;;19.74;100.00
49194;BME280;35029;50.804;12.866;2022-08-19T02:38:37;97039.19;;;19.73;100.00
49194;BME280;35029;50.804;12.866;2022-08-19T02:41:07;97045.41;;;19.69;100.00
49194;BME280;35029;50.804;12.866;2022-08-19T02:43:35;97057.47;;;19.76;100.00
49194;BME280;35029;50.804;12.866;2022-08-19T02:46:11;97064.47;;;19.77;100.00
49194;BME280;35029;50.804;12.866;2022-08-19T02:48:37;97077.38;;;19.81;100.00
49194;BME280;35029;50.804;12.866;2022-08-19T02:51:02;97073.09;;;19.74;100.00
49194;BME280;35029;50.804;12.866;2022-08-19T02:53:28;97074.44;;;19.72;100.00
49194;BME280;35029;50.804;12.866;2022-08-19T02:55:55;97068.78;;;19.68;100.00
49194;BME280;35029;50.804;12.866;2022-08-19T02:58:21;97072.00;;;19.70;100.00
49194;BME280;35029;50.804;12.866;2022-08-19T03:00:54;97080.88;;;19.71;100.00
49194;BME280;35029;50.804;12.866;2022-08-19T03:03:20;97082.75;;;19.75;100.00
49194;BME280;35029;50.804;12.866;2022-08-19T03:05:46;97092.72;;;19.80;100.00
49194;BME280;35029;50.804;12.866;2022-08-19T03:08:14;97092.47;;;19.82;100.00
49194;BME280;35029;50.804;12.866;2022-08-19T03:10:42;97103.50;;;19.80;100.00
49194;BME280;35029;50.804;12.866;2022-08-19T03:13:11;97097.56;;;19.68;100.00
49194;BME280;35029;50.804;12.866;2022-08-19T03:15:42;97091.91;;;19.74;100.00
49194;BME280;35029;50.804;12.866;2022-08-19T03:18:08;97099.97;;;19.74;100.00
49194;BME280;35029;50.804;12.866;2022-08-19T03:20:33;97103.72;;;19.73;100.00
49194;BME280;35029;50.804;12.866;2022-08-19T03:22:59;97100.75;;;19.75;100.00
49194;BME280;35029;50.804;12.866;2022-08-19T03:25:25;97085.44;;;19.75;100.00
49194;BME280;35029;50.804;12.866;2022-08-19T03:27:50;97084.63;;;19.75;100.00
49194;BME280;35029;50.804;12.866;2022-08-19T03:30:16;97081.66;;;19.71;100.00
49194;BME280;35029;50.804;12.866;2022-08-19T03:32:41;97079.53;;;19.68;100.00
49194;BME280;35029;50.804;12.866;2022-08-19T03:35:07;97084.13;;;19.68;100.00
49194;BME280;35029;50.804;12.866;2022-08-19T03:37:33;97076.31;;;19.61;100.00
49194;BME280;35029;50.804;12.866;2022-08-19T03:40:00;97085.19;;;19.62;100.00
49194;BME280;35029;50.804;12.866;2022-08-19T03:42:28;97086.28;;;19.61;100.00
49194;BME280;35029;50.804;12.866;2022-08-19T03:44:54;97094.59;;;19.64;100.00
49194;BME280;35029;50.804;12.866;2022-08-19T03:47:19;97097.28;;;19.69;100.00
49194;BME280;35029;50.804;12.866;2022-08-19T03:49:45;97085.97;;;19.67;100.00
49194;BME280;35029;50.804;12.866;2022-08-19T03:52:11;97088.66;;;19.67;100.00
49194;BME280;35029;50.804;12.866;2022-08-19T03:54:37;97089.50;;;19.68;100.00
49194;BME280;35029;50.804;12.866;2022-08-19T03:57:03;97100.78;;;19.65;100.00
49194;BME280;35029;50.804;12.866;2022-08-19T03:59:33;97098.34;;;19.63;100.00
49194;BME280;35029;50.804;12.866;2022-08-19T04:02:01;97095.13;;;19.56;100.00
49194;BME280;35029;50.804;12.866;2022-08-19T04:04:27;97085.47;;;19.45;100.00
49194;BME280;35029;50.804;12.866;2022-08-19T04:06:54;97099.69;;;19.45;100.00
49194;BME280;35029;50.804;12.866;2022-08-19T04:09:20;97091.09;;;19.48;100.00
49194;BME280;35029;50.804;12.866;2022-08-19T04:11:48;97087.88;;;19.51;100.00
49194;BME280;35029;50.804;12.866;2022-08-19T04:14:18;97087.06;;;19.51;100.00
49194;BME280;35029;50.804;12.866;2022-08-19T04:16:45;97089.78;;;19.46;100.00
49194;BME280;35029;50.804;12.866;2022-08-19T04:19:12;97100.53;;;19.46;100.00
49194;BME280;35029;50.804;12.866;2022-08-19T04:21:38;97091.91;;;19.43;100.00
49194;BME280;35029;50.804;12.866;2022-08-19T04:24:04;97086.81;;;19.42;100.00
49194;BME280;35029;50.804;12.866;2022-08-19T04:26:34;97070.69;;;19.42;100.00
49194;BME280;35029;50.804;12.866;2022-08-19T04:29:04;97080.63;;;19.47;100.00
49194;BME280;35029;50.804;12.866;2022-08-19T04:31:31;97073.66;;;19.46;100.00
49194;BME280;35029;50.804;12.866;2022-08-19T04:33:59;97081.97;;;19.49;100.00
49194;BME280;35029;50.804;12.866;2022-08-19T04:36:29;97088.94;;;19.45;100.00
49194;BME280;35029;50.804;12.866;2022-08-19T04:38:57;97091.38;;;19.41;100.00
49194;BME280;35029;50.804;12.866;2022-08-19T04:41:23;97089.22;;;19.43;100.00
49194;BME280;35029;50.804;12.866;2022-08-19T04:44:08;97088.16;;;19.39;100.00
49194;BME280;35029;50.804;12.866;2022-08-19T04:46:34;97083.56;;;19.40;100.00
49194;BME280;35029;50.804;12.866;2022-08-19T04:49:01;97083.31;;;19.41;100.00
49194;BME280;35029;50.804;12.866;2022-08-19T04:51:28;97091.63;;;19.40;100.00
49194;BME280;35029;50.804;12.866;2022-08-19T04:53:55;97102.38;;;19.40;100.00
49194;BME280;35029;50.804;12.866;2022-08-19T04:56:21;97105.09;;;19.35;100.00
49194;BME280;35029;50.804;12.866;2022-08-19T04:58:49;97101.84;;;19.38;100.00
49194;BME280;35029;50.804;12.866;2022-08-19T05:01:22;97102.66;;;19.38;100.00
49194;BME280;35029;50.804;12.866;2022-08-19T05:03:49;97080.34;;;19.33;100.00
49194;BME280;35029;50.804;12.866;2022-08-19T05:06:16;97086.78;;;19.32;100.00
49194;BME280;35029;50.804;12.866;2022-08-19T05:08:42;97093.53;;;19.39;100.00
49194;BME280;35029;50.804;12.866;2022-08-19T05:11:13;97097.53;;;19.37;100.00
49194;BME280;35029;50.804;12.866;2022-08-19T05:13:39;97092.72;;;19.39;100.00
49194;BME280;35029;50.804;12.866;2022-08-19T05:16:05;97073.09;;;19.23;100.00
49194;BME280;35029;50.804;12.866;2022-08-19T05:18:31;97091.38;;;19.41;100.00
49194;BME280;35029;50.804;12.866;2022-08-19T05:21:17;97104.28;;;19.39;100.00
49194;BME280;35029;50.804;12.866;2022-08-19T05:24:03;97093.78;;;19.38;100.00
49194;BME280;35029;50.804;12.866;2022-08-19T05:26:29;97114.47;;;19.42;100.00
49194;BME280;35029;50.804;12.866;2022-08-19T05:28:55;97104.81;;;19.41;100.00
49194;BME280;35029;50.804;12.866;2022-08-19T05:31:21;97115.28;;;19.48;100.00
49194;BME280;35029;50.804;12.866;2022-08-19T05:33:47;97115.28;;;19.48;100.00
49194;BME280;35029;50.804;12.866;2022-08-19T05:36:12;97120.13;;;19.46;100.00
49194;BME280;35029;50.804;12.866;2022-08-19T05:38:39;97133.03;;;19.39;100.00
49194;BME280;35029;50.804;12.866;2022-08-19T05:41:13;97134.91;;;19.38;100.00
49194;BME280;35029;50.804;12.866;2022-08-19T05:43:39;97130.84;;;19.36;100.00
49194;BME280;35029;50.804;12.866;2022-08-19T05:46:06;97143.25;;;19.68;100.00
49194;BME280;35029;50.804;12.866;2022-08-19T05:48:34;97150.22;;;19.74;100.00
49194;BME280;35029;50.804;12.866;2022-08-19T05:51:06;97158.03;;;19.75;100.00
49194;BME280;35029;50.804;12.866;2022-08-19T05:53:35;97162.63;;;19.75;100.00
49194;BME280;35029;50.804;12.866;2022-08-19T05:56:09;97179.56;;;19.65;100.00
49194;BME280;35029;50.804;12.866;2022-08-19T05:58:36;97158.56;;;19.36;100.00
49194;BME280;35029;50.804;12.866;2022-08-19T06:01:03;97175.75;;;19.40;100.00
49194;BME280;35029;50.804;12.866;2022-08-19T06:03:32;97191.88;;;19.40;100.00
49194;BME280;35029;50.804;12.866;2022-08-19T06:05:58;97206.94;;;19.41;100.00
49194;BME280;35029;50.804;12.866;2022-08-19T06:08:26;97196.44;;;19.40;100.00
49194;BME280;35029;50.804;12.866;2022-08-19T06:10:52;97206.41;;;19.39;100.00
49194;BME280;35029;50.804;12.866;2022-08-19T06:13:18;97213.38;;;19.35;100.00
49194;BME280;35029;50.804;12.866;2022-08-19T06:15:45;97219.28;;;19.32;100.00
49194;BME280;35029;50.804;12.866;2022-08-19T06:18:13;97220.63;;;19.30;100.00
49194;BME280;35029;50.804;12.866;2022-08-19T06:20:39;97221.69;;;19.29;100.00
49194;BME280;35029;50.804;12.866;2022-08-19T06:23:05;97233.50;;;19.33;100.00
49194;BME280;35029;50.804;12.866;2022-08-19T06:25:30;97227.31;;;19.27;100.00
49194;BME280;35029;50.804;12.866;2022-08-19T06:27:56;97236.44;;;19.26;100.00
49194;BME280;35029;50.804;12.866;2022-08-19T06:30:22;97228.91;;;19.23;100.00
49194;BME280;35029;50.804;12.866;2022-08-19T06:32:48;97230.00;;;19.27;100.00
49194;BME280;35029;50.804;12.866;2022-08-19T06:35:13;97232.69;;;19.27;100.00
49194;BME280;35029;50.804;12.866;2022-08-19T06:37:40;97235.69;;;19.31;100.00
49194;BME280;35029;50.804;12.866;2022-08-19T06:40:07;97244.00;;;19.34;100.00
49194;BME280;35029;50.804;12.866;2022-08-19T06:42:37;97251.53;;;19.32;100.00
49194;BME280;35029;50.804;12.866;2022-08-19T06:45:04;97252.31;;;19.33;100.00
49194;BME280;35029;50.804;12.866;2022-08-19T06:47:31;97252.06;;;19.34;100.00
49194;BME280;35029;50.804;12.866;2022-08-19T06:49:59;97247.78;;;19.43;100.00
49194;BME280;35029;50.804;12.866;2022-08-19T06:52:34;97246.19;;;19.48;100.00
49194;BME280;35029;50.804;12.866;2022-08-19T06:55:00;97237.03;;;19.43;100.00
49194;BME280;35029;50.804;12.866;2022-08-19T06:57:26;97241.09;;;19.51;100.00
49194;BME280;35029;50.804;12.866;2022-08-19T06:59:52;97238.94;;;19.58;100.00
49194;BME280;35029;50.804;12.866;2022-08-19T07:02:19;97245.69;;;19.66;100.00
49194;BME280;35029;50.804;12.866;2022-08-19T07:04:45;97232.50;;;19.59;100.00
49194;BME280;35029;50.804;12.866;2022-08-19T07:07:13;97240.59;;;19.65;100.00
49194;BME280;35029;50.804;12.866;2022-08-19T07:09:41;97234.94;;;19.66;100.00
49194;BME280;35029;50.804;12.866;2022-08-19T07:12:09;97229.84;;;19.65;100.00
49194;BME280;35029;50.804;12.866;2022-08-19T07:14:36;97232.25;;;19.61;100.00
49194;BME280;35029;50.804;12.866;2022-08-19T07:17:05;97234.94;;;19.61;100.00
49194;BME280;35029;50.804;12.866;2022-08-19T07:19:31;97238.69;;;19.60;100.00
49194;BME280;35029;50.804;12.866;2022-08-19T07:22:00;97238.41;;;19.62;100.00
49194;BME280;35029;50.804;12.866;2022-08-19T07:24:27;97242.97;;;19.56;100.00
49194;BME280;35029;50.804;12.866;2022-08-19T07:26:55;97239.72;;;19.43;100.00
49194;BME280;35029;50.804;12.866;2022-08-19T07:29:22;97247.28;;;19.57;100.00
49194;BME280;35029;50.804;12.866;2022-08-19T07:31:52;97248.91;;;19.53;100.00
49194;BME280;35029;50.804;12.866;2022-08-19T07:34:22;97251.31;;;19.54;100.00
49194;BME280;35029;50.804;12.866;2022-08-19T07:36:49;97258.31;;;19.55;100.00
49194;BME280;35029;50.804;12.866;2022-08-19T07:39:29;97256.97;;;19.53;100.00
49194;BME280;35029;50.804;12.866;2022-08-19T07:41:57;97255.03;;;19.48;100.00
49194;BME280;35029;50.804;12.866;2022-08-19T07:44:23;97254.81;;;19.50;100.00
49194;BME280;35029;50.804;12.866;2022-08-19T07:46:53;97259.34;;;19.49;100.00
49194;BME280;35029;50.804;12.866;2022-08-19T07:49:20;97262.84;;;19.45;100.00
49194;BME280;35029;50.804;12.866;2022-08-19T07:51:51;97267.97;;;19.46;100.00
49194;BME280;35029;50.804;12.866;2022-08-19T07:54:19;97264.47;;;19.51;100.00
49194;BME280;35029;50.804;12.866;2022-08-19T07:56:45;97277.09;;;19.50;100.00
49194;BME280;35029;50.804;12.866;2022-08-19T07:59:11;97281.69;;;19.50;100.00
49194;BME280;35029;50.804;12.866;2022-08-19T08:01:38;97283.28;;;19.51;100.00
49194;BME280;35029;50.804;12.866;2022-08-19T08:04:06;97285.16;;;19.50;100.00
49194;BME280;35029;50.804;12.866;2022-08-19T08:06:51;97285.97;;;19.51;100.00
49194;BME280;35029;50.804;12.866;2022-08-19T08:09:38;97276.25;;;19.39;100.00
49194;BME280;35029;50.804;12.866;2022-08-19T08:12:15;97288.13;;;19.49;100.00
49194;BME280;35029;50.804;12.866;2022-08-19T08:14:45;97299.13;;;19.52;100.00
49194;BME280;35029;50.804;12.866;2022-08-19T08:17:15;97303.19;;;19.55;100.00
49194;BME280;35029;50.804;12.866;2022-08-19T08:19:41;97298.09;;;19.58;100.00
49194;BME280;35029;50.804;12.866;2022-08-19T08:22:08;97288.13;;;19.59;100.00
49194;BME280;35029;50.804;12.866;2022-08-19T08:24:54;97294.59;;;19.63;100.00
49194;BME280;35029;50.804;12.866;2022-08-19T08:27:20;97293.53;;;19.64;100.00
49194;BME280;35029;50.804;12.866;2022-08-19T08:29:46;97293.00;;;19.62;100.00
49194;BME280;35029;50.804;12.866;2022-08-19T08:32:14;97296.75;;;19.61;100.00
49194;BME280;35029;50.804;12.866;2022-08-19T08:34:40;97296.75;;;19.61;100.00
49194;BME280;35029;50.804;12.866;2022-08-19T08:37:05;97296.22;;;19.59;100.00
49194;BME280;35029;50.804;12.866;2022-08-19T08:39:31;97288.97;;;19.59;100.00
49194;BME280;35029;50.804;12.866;2022-08-19T08:42:11;97302.94;;;19.62;100.00
49194;BME280;35029;50.804;12.866;2022-08-19T08:47:19;97314.78;;;19.61;100.00
49194;BME280;35029;50.804;12.866;2022-08-19T08:49:53;97303.75;;;19.57;100.00
49194;BME280;35029;50.804;12.866;2022-08-19T08:52:25;97303.19;;;19.55;100.00
49194;BME280;35029;50.804;12.866;2022-08-19T08:54:54;97298.59;;;19.45;100.00
49194;BME280;35029;50.804;12.866;2022-08-19T08:59:57;97316.66;;;19.60;100.00
49194;BME280;35029;50.804;12.866;2022-08-19T09:02:25;97320.16;;;19.61;100.00
49194;BME280;35029;50.804;12.866;2022-08-19T09:04:50;97309.66;;;19.59;100.00
49194;BME280;35029;50.804;12.866;2022-08-19T09:10:10;97295.94;;;19.55;100.00
49194;BME280;35029;50.804;12.866;2022-08-19T09:15:10;97281.44;;;19.67;100.00
49194;BME280;35029;50.804;12.866;2022-08-19T09:17:37;97291.41;;;19.66;100.00
49194;BME280;35029;50.804;12.866;2022-08-19T09:22:42;97280.09;;;19.69;100.00
49194;BME280;35029;50.804;12.866;2022-08-19T09:25:18;97280.63;;;19.71;100.00
49194;BME280;35029;50.804;12.866;2022-08-19T09:27:45;97290.31;;;19.72;100.00
49194;BME280;35029;50.804;12.866;2022-08-19T09:30:21;97286.59;;;19.79;100.00
49194;BME280;35029;50.804;12.866;2022-08-19T09:32:49;97283.94;;;19.94;100.00
49194;BME280;35029;50.804;12.866;2022-08-19T09:35:18;97290.97;;;20.16;100.00
49194;BME280;35029;50.804;12.866;2022-08-19T09:37:44;97300.13;;;20.30;100.00
49194;BME280;35029;50.804;12.866;2022-08-19T09:40:11;97290.97;;;20.36;100.00
49194;BME280;35029;50.804;12.866;2022-08-19T09:42:37;97293.66;;;20.41;100.00
49194;BME280;35029;50.804;12.866;2022-08-19T09:45:03;97301.47;;;20.43;100.00
49194;BME280;35029;50.804;12.866;2022-08-19T09:47:29;97293.38;;;20.38;100.00
49194;BME280;35029;50.804;12.866;2022-08-19T09:49:55;97288.25;;;20.52;100.00
49194;BME280;35029;50.804;12.866;2022-08-19T09:52:20;97284.47;;;20.63;100.00
49194;BME280;35029;50.804;12.866;2022-08-19T09:54:46;97280.16;;;20.62;100.00
49194;BME280;35029;50.804;12.866;2022-08-19T09:57:12;97287.44;;;20.56;100.00
49194;BME280;35029;50.804;12.866;2022-08-19T09:59:38;97284.75;;;20.51;100.00
49194;BME280;35029;50.804;12.866;2022-08-19T10:02:06;97284.75;;;20.51;100.00
49194;BME280;35029;50.804;12.866;2022-08-19T10:04:31;97287.44;;;20.56;100.00
49194;BME280;35029;50.804;12.866;2022-08-19T10:07:15;97257.31;;;20.34;100.00
49194;BME280;35029;50.804;12.866;2022-08-19T10:09:42;97299.03;;;20.67;100.00
49194;BME280;35029;50.804;12.866;2022-08-19T10:12:08;97300.91;;;20.77;100.00
49194;BME280;35029;50.804;12.866;2022-08-19T10:14:34;97306.31;;;20.72;100.00
49194;BME280;35029;50.804;12.866;2022-08-19T10:17:00;97288.28;;;20.72;100.00
49194;BME280;35029;50.804;12.866;2022-08-19T10:19:28;97301.44;;;20.84;99.49
49194;BME280;35029;50.804;12.866;2022-08-19T10:21:56;97305.75;;;20.85;98.44
49194;BME280;35029;50.804;12.866;2022-08-19T10:24:22;97298.75;;;20.79;99.26
49194;BME280;35029;50.804;12.866;2022-08-19T10:26:49;97300.09;;;20.82;100.00
49194;BME280;35029;50.804;12.866;2022-08-19T10:29:15;97304.13;;;20.79;99.33
49194;BME280;35029;50.804;12.866;2022-08-19T10:31:42;97306.56;;;20.70;99.62
49194;BME280;35029;50.804;12.866;2022-08-19T10:34:07;97312.22;;;20.58;100.00
49194;BME280;35029;50.804;12.866;2022-08-19T10:36:35;97316.78;;;20.48;100.00
49194;BME280;35029;50.804;12.866;2022-08-19T10:39:05;97318.69;;;20.42;100.00
49194;BME280;35029;50.804;12.866;2022-08-19T10:41:35;97324.06;;;20.52;100.00
49194;BME280;35029;50.804;12.866;2022-08-19T10:44:08;97321.38;;;20.47;99.79
49194;BME280;35029;50.804;12.866;2022-08-19T10:46:41;97339.16;;;20.53;99.41
49194;BME280;35029;50.804;12.866;2022-08-19T10:49:08;97345.09;;;20.45;99.54
49194;BME280;35029;50.804;12.866;2022-08-19T10:51:35;97345.06;;;20.40;99.69
49194;BME280;35029;50.804;12.866;2022-08-19T10:54:20;97344.25;;;20.24;99.39
49194;BME280;35029;50.804;12.866;2022-08-19T10:56:46;97342.63;;;20.23;100.00
49194;BME280;35029;50.804;12.866;2022-08-19T10:59:28;97339.13;;;20.22;99.89
49194;BME280;35029;50.804;12.866;2022-08-19T11:01:59;97333.75;;;20.17;100.00
49194;BME280;35029;50.804;12.866;2022-08-19T11:04:26;97329.72;;;20.20;100.00
49194;BME280;35029;50.804;12.866;2022-08-19T11:06:51;97313.03;;;20.07;100.00
49194;BME280;35029;50.804;12.866;2022-08-19T11:09:20;97337.78;;;20.25;100.00
49194;BME280;35029;50.804;12.866;2022-08-19T11:11:46;97326.78;;;20.32;100.00
49194;BME280;35029;50.804;12.866;2022-08-19T11:14:16;97327.84;;;20.62;100.00
49194;BME280;35029;50.804;12.866;2022-08-19T11:16:43;97335.66;;;20.79;100.00
49194;BME280;35029;50.804;12.866;2022-08-19T11:19:10;97345.63;;;20.78;98.49
49194;BME280;35029;50.804;12.866;2022-08-19T11:21:41;97341.03;;;20.79;99.45
49194;BME280;35029;50.804;12.866;2022-08-19T11:24:10;97342.38;;;20.71;98.78
49194;BME280;35029;50.804;12.866;2022-08-19T11:26:37;97330.81;;;20.50;98.74
49194;BME280;35029;50.804;12.866;2022-08-19T11:29:04;97338.31;;;20.53;100.00
49194;BME280;35029;50.804;12.866;2022-08-19T11:31:33;97332.13;;;20.37;99.51
49194;BME280;35029;50.804;12.866;2022-08-19T11:34:03;97340.75;;;20.29;100.00
49194;BME280;35029;50.804;12.866;2022-08-19T11:36:30;97338.03;;;20.13;100.00
49194;BME280;35029;50.804;12.866;2022-08-19T11:38:57;97340.19;;;20.16;100.00
49194;BME280;35029;50.804;12.866;2022-08-19T11:41:24;97350.44;;;20.14;100.00
49194;BME280;35029;50.804;12.866;2022-08-19T11:43:51;97349.59;;;20.14;100.00
49194;BME280;35029;50.804;12.866;2022-08-19T11:46:19;97324.59;;;19.98;100.00
49194;BME280;35029;50.804;12.866;2022-08-19T11:48:44;97340.72;;;20.03;100.00
49194;BME280;35029;50.804;12.866;2022-08-19T11:51:13;97339.94;;;20.07;100.00
49194;BME280;35029;50.804;12.866;2022-08-19T11:53:39;97343.13;;;20.09;100.00
49194;BME280;35029;50.804;12.866;2022-08-19T11:56:07;97336.16;;;20.14;100.00
49194;BME280;35029;50.804;12.866;2022-08-19T11:58:33;97335.59;;;20.01;100.00
49194;BME280;35029;50.804;12.866;2022-08-19T12:00:59;97350.94;;;20.01;100.00
49194;BME280;35029;50.804;12.866;2022-08-19T12:03:26;97335.59;;;19.91;100.00
49194;BME280;35029;50.804;12.866;2022-08-19T12:05:52;97352.28;;;19.88;100.00
49194;BME280;35029;50.804;12.866;2022-08-19T12:08:18;97340.44;;;19.84;100.00
49194;BME280;35029;50.804;12.866;2022-08-19T12:10:44;97364.88;;;19.82;100.00
49194;BME280;35029;50.804;12.866;2022-08-19T12:13:11;97366.44;;;19.78;100.00
49194;BME280;35029;50.804;12.866;2022-08-19T12:15:41;97357.00;;;19.75;100.00
49194;BME280;35029;50.804;12.866;2022-08-19T12:18:08;97360.81;;;19.74;100.00
49194;BME280;35029;50.804;12.866;2022-08-19T12:20:39;97375.03;;;19.65;100.00
49194;BME280;35029;50.804;12.866;2022-08-19T12:23:06;97373.94;;;19.66;100.00
49194;BME280;35029;50.804;12.866;2022-08-19T12:25:32;97374.72;;;19.61;100.00
49194;BME280;35029;50.804;12.866;2022-08-19T12:27:58;97392.19;;;19.58;100.00
49194;BME280;35029;50.804;12.866;2022-08-19T12:30:24;97384.91;;;19.54;100.00
49194;BME280;35029;50.804;12.866;2022-08-19T12:32:50;97387.31;;;19.50;100.00
49194;BME280;35029;50.804;12.866;2022-08-19T12:35:17;97385.94;;;19.42;100.00
49194;BME280;35029;50.804;12.866;2022-08-19T12:37:46;97382.75;;;19.46;100.00
49194;BME280;35029;50.804;12.866;2022-08-19T12:40:12;97387.56;;;19.43;100.00
49194;BME280;35029;50.804;12.866;2022-08-19T12:42:38;97391.88;;;19.45;100.00
49194;BME280;35029;50.804;12.866;2022-08-19T12:45:11;97388.59;;;19.42;100.00
49194;BME280;35029;50.804;12.866;2022-08-19T12:47:39;97394.25;;;19.41;100.00
49194;BME280;35029;50.804;12.866;2022-08-19T12:50:05;97399.88;;;19.39;100.00
49194;BME280;35029;50.804;12.866;2022-08-19T12:52:37;97395.59;;;19.38;100.00
49194;BME280;35029;50.804;12.866;2022-08-19T12:55:05;97378.88;;;19.31;100.00
49194;BME280;35029;50.804;12.866;2022-08-19T12:57:31;97370.31;;;19.34;100.00